Bonners Ferry, Idaho
Current Conditions -  °F | °C
As of 9:15 AM on Sunday 21 Dec 2014 (Local Time) from K65S Reporting Station
Overcast Overcast  
Wind Chill: 39°   Ceiling: 6000
Heat Index: 45°   Visibility: 10mi
Dew Point: 36°   Wind: 10mph
Humidity: 71%   Direction: 220°SW
Pressure: 29.58"   Gusts: 20mph
Location:  48.69°N, 116.32°W
Report Text: K65S 211715Z AUTO 22009G17KT 10SM OVC060 07/02 A2958 RMK AO2
Loading
Personal Weather Stations






























Interactive Weather Map New forecast layout! Learn more

10-Day Weather Forecast

Advertisements
Track Severe Weather on mobile